Time;durP1;ratioP1;P1;durP2;ratioP2;P2;SDS_P1;SDS_P2;PMS_P1;PMS_P2;Temp;Humidity;BMP_temperature;BMP_pressure;BME280_temperature;BME280_humidity;BME280_pressure;Samples;Min_cycle;Max_cycle;Signal;HPM_P1;HPM_P2
2022/07/25 00:01:09;;;;;;;6.22;4.18;;;;;;;;;;4988306;28;92856;-70
2022/07/25 00:03:39;;;;;;;4.00;3.60;;;;;;;;;;4997425;28;92879;-70
2022/07/25 00:06:08;;;;;;;4.43;3.80;;;;;;;;;;4996305;28;93187;-70
2022/07/25 00:08:39;;;;;;;4.80;4.40;;;;;;;;;;4999235;28;92880;-70
2022/07/25 00:11:05;;;;;;;6.07;4.00;;;;;;;;;;4996287;28;93499;-70
2022/07/25 00:13:32;;;;;;;4.72;4.05;;;;;;;;;;4995429;28;92549;-70
2022/07/25 00:15:58;;;;;;;13.07;4.57;;;;;;;;;;4994894;28;93142;-70
2022/07/25 00:18:25;;;;;;;4.93;4.30;;;;;;;;;;4995835;28;93912;-70
2022/07/25 00:20:51;;;;;;;11.85;4.85;;;;;;;;;;4995775;28;93088;-70
2022/07/25 00:23:17;;;;;;;5.60;4.47;;;;;;;;;;4993655;28;94952;-70
2022/07/25 00:25:44;;;;;;;9.02;4.70;;;;;;;;;;4995537;28;93296;-70
2022/07/25 00:28:10;;;;;;;5.53;4.65;;;;;;;;;;4995604;28;93238;-70
2022/07/25 00:30:37;;;;;;;7.03;4.57;;;;;;;;;;4997948;28;92991;-70
2022/07/25 00:33:03;;;;;;;5.70;5.18;;;;;;;;;;4996087;28;92598;-70
2022/07/25 00:35:29;;;;;;;6.18;5.32;;;;;;;;;;4996088;28;93133;-71
2022/07/25 00:37:56;;;;;;;5.60;5.25;;;;;;;;;;4995463;28;92491;-70
2022/07/25 00:40:22;;;;;;;5.93;5.40;;;;;;;;;;4996182;28;91741;-70
2022/07/25 00:42:49;;;;;;;6.05;5.47;;;;;;;;;;4994997;28;92496;-71
2022/07/25 00:45:15;;;;;;;7.07;5.00;;;;;;;;;;4995365;28;94329;-71
2022/07/25 00:47:41;;;;;;;6.55;5.00;;;;;;;;;;4993965;28;94903;-71
2022/07/25 00:50:08;;;;;;;6.57;5.00;;;;;;;;;;4994636;28;96057;-70
2022/07/25 00:52:34;;;;;;;8.70;5.20;;;;;;;;;;4998945;28;93444;-70
2022/07/25 00:55:01;;;;;;;8.15;5.70;;;;;;;;;;4996316;28;93245;-70
2022/07/25 00:57:27;;;;;;;5.97;5.57;;;;;;;;;;4993588;28;94339;-70
2022/07/25 00:59:54;;;;;;;6.20;5.80;;;;;;;;;;4994868;28;92511;-70
2022/07/25 01:02:20;;;;;;;6.22;5.63;;;;;;;;;;4994901;28;93419;-70
2022/07/25 01:04:46;;;;;;;6.07;5.43;;;;;;;;;;4994886;28;93324;-70
2022/07/25 01:07:13;;;;;;;6.45;5.88;;;;;;;;;;4995391;28;92474;-71
2022/07/25 01:09:39;;;;;;;6.10;5.65;;;;;;;;;;4995439;28;93818;-70
2022/07/25 01:12:06;;;;;;;5.93;5.43;;;;;;;;;;4993083;28;95555;-71
2022/07/25 01:14:36;;;;;;;6.93;6.32;;;;;;;;;;4997286;28;92557;-70
2022/07/25 01:17:04;;;;;;;8.25;5.85;;;;;;;;;;4994657;28;93551;-70
2022/07/25 01:19:30;;;;;;;7.50;6.22;;;;;;;;;;4986441;28;92784;-70
2022/07/25 01:21:57;;;;;;;7.93;6.28;;;;;;;;;;4994933;28;93801;-70
2022/07/25 01:24:23;;;;;;;7.13;5.93;;;;;;;;;;4994616;28;93219;-71
2022/07/25 01:26:49;;;;;;;7.95;6.95;;;;;;;;;;4994060;28;92519;-70
2022/07/25 01:29:16;;;;;;;8.05;6.20;;;;;;;;;;4995616;28;93168;-71
2022/07/25 01:31:42;;;;;;;6.47;6.07;;;;;;;;;;4994898;28;94314;-71
2022/07/25 01:34:08;;;;;;;6.82;5.60;;;;;;;;;;4994650;28;92471;-70
2022/07/25 01:36:35;;;;;;;7.45;5.78;;;;;;;;;;4995395;28;94937;-71
2022/07/25 01:39:02;;;;;;;7.25;6.63;;;;;;;;;;4994594;28;92713;-70
2022/07/25 01:41:28;;;;;;;6.90;5.57;;;;;;;;;;4994878;28;93282;-71
2022/07/25 01:43:55;;;;;;;11.10;7.40;;;;;;;;;;4995226;28;93804;-71
2022/07/25 01:46:21;;;;;;;9.02;6.88;;;;;;;;;;5000717;28;92547;-71
2022/07/25 01:48:47;;;;;;;16.42;6.85;;;;;;;;;;4994792;28;92995;-70
2022/07/25 01:51:14;;;;;;;6.53;5.97;;;;;;;;;;4994660;28;94368;-70
2022/07/25 01:53:45;;;;;;;9.83;7.03;;;;;;;;;;4994532;28;91764;-70
2022/07/25 01:56:12;;;;;;;6.90;6.20;;;;;;;;;;4997847;28;92756;-70
2022/07/25 01:58:39;;;;;;;7.28;6.57;;;;;;;;;;4994155;28;92616;-71
2022/07/25 02:01:05;;;;;;;6.70;6.05;;;;;;;;;;4994110;28;94821;-71
2022/07/25 02:03:32;;;;;;;6.60;6.10;;;;;;;;;;5002743;28;93394;-71
2022/07/25 02:06:03;;;;;;;9.38;6.40;;;;;;;;;;4994778;28;92541;-70
2022/07/25 02:08:29;;;;;;;6.88;6.22;;;;;;;;;;4993467;28;93827;-71
2022/07/25 02:10:56;;;;;;;6.82;6.13;;;;;;;;;;4993918;28;93422;-71
2022/07/25 02:13:23;;;;;;;9.20;5.88;;;;;;;;;;4994518;28;92543;-70
2022/07/25 02:15:50;;;;;;;9.55;6.45;;;;;;;;;;4993491;28;92920;-71
2022/07/25 02:18:16;;;;;;;6.55;5.50;;;;;;;;;;4998063;28;93400;-71
2022/07/25 02:20:43;;;;;;;7.95;6.38;;;;;;;;;;4994128;28;93276;-71
2022/07/25 02:23:09;;;;;;;7.82;6.35;;;;;;;;;;4993957;28;94160;-70
2022/07/25 02:25:36;;;;;;;7.75;6.03;;;;;;;;;;4992275;28;94904;-70
2022/07/25 02:28:02;;;;;;;6.55;5.95;;;;;;;;;;4994404;28;96389;-71
2022/07/25 02:30:29;;;;;;;6.40;5.90;;;;;;;;;;4993567;28;94252;-71
2022/07/25 02:32:55;;;;;;;6.13;5.25;;;;;;;;;;4993909;28;92555;-71
2022/07/25 02:35:21;;;;;;;11.18;6.32;;;;;;;;;;4993497;28;92926;-71
2022/07/25 02:37:48;;;;;;;7.00;6.20;;;;;;;;;;4994409;28;93269;-70
2022/07/25 02:40:14;;;;;;;6.85;6.38;;;;;;;;;;4997748;28;92553;-71
2022/07/25 02:42:40;;;;;;;11.07;7.00;;;;;;;;;;4993384;28;92386;-70
2022/07/25 02:45:07;;;;;;;6.55;6.10;;;;;;;;;;4994433;28;92553;-71
2022/07/25 02:47:36;;;;;;;6.90;6.22;;;;;;;;;;4994518;28;93043;-70
2022/07/25 02:50:03;;;;;;;7.63;6.38;;;;;;;;;;4991881;28;96824;-70
2022/07/25 02:52:30;;;;;;;7.35;6.70;;;;;;;;;;4995147;28;92862;-70
2022/07/25 02:54:56;;;;;;;7.53;6.93;;;;;;;;;;4985248;28;93856;-70
2022/07/25 02:57:22;;;;;;;7.43;6.72;;;;;;;;;;4993088;28;93433;-71
2022/07/25 02:59:49;;;;;;;6.97;6.30;;;;;;;;;;4993263;28;92808;-71
2022/07/25 03:02:15;;;;;;;8.30;6.30;;;;;;;;;;4997238;28;93057;-71
2022/07/25 03:04:41;;;;;;;7.65;6.97;;;;;;;;;;4993067;28;92542;-71
2022/07/25 03:07:08;;;;;;;7.53;6.80;;;;;;;;;;4994513;28;94061;-70
2022/07/25 03:09:34;;;;;;;9.32;7.10;;;;;;;;;;4994348;28;93170;-71
2022/07/25 03:12:01;;;;;;;8.38;7.65;;;;;;;;;;4985052;28;92677;-70
2022/07/25 03:14:27;;;;;;;9.23;7.60;;;;;;;;;;4984255;28;95362;-71
2022/07/25 03:16:53;;;;;;;9.50;7.35;;;;;;;;;;4993016;28;93350;-70
2022/07/25 03:19:20;;;;;;;9.27;6.68;;;;;;;;;;4992822;28;92605;-71
2022/07/25 03:21:46;;;;;;;7.72;6.80;;;;;;;;;;4996867;28;93588;-70
2022/07/25 03:24:13;;;;;;;8.63;7.78;;;;;;;;;;4999883;28;92527;-70
2022/07/25 03:26:39;;;;;;;12.82;8.30;;;;;;;;;;4996608;28;92976;-71
2022/07/25 03:29:05;;;;;;;16.38;8.10;;;;;;;;;;4989059;28;93589;-71
2022/07/25 03:31:32;;;;;;;8.82;8.02;;;;;;;;;;4997140;28;91798;-70
2022/07/25 03:33:58;;;;;;;9.25;8.45;;;;;;;;;;4996610;28;92931;-70
2022/07/25 03:36:24;;;;;;;10.45;8.50;;;;;;;;;;4997217;28;93823;-71
2022/07/25 03:38:51;;;;;;;10.55;8.65;;;;;;;;;;4994243;28;94997;-70
2022/07/25 03:41:17;;;;;;;12.27;9.38;;;;;;;;;;4997082;28;96221;-71
2022/07/25 03:43:44;;;;;;;10.27;9.27;;;;;;;;;;4997191;28;93294;-71
2022/07/25 03:46:10;;;;;;;9.93;8.93;;;;;;;;;;4990455;28;93125;-70
2022/07/25 03:48:37;;;;;;;12.65;10.20;;;;;;;;;;4996415;28;94286;-70
2022/07/25 03:51:03;;;;;;;9.80;8.90;;;;;;;;;;4995093;28;92469;-71
2022/07/25 03:54:00;;;;;;;12.13;9.35;;;;;;;;;;4995947;28;93773;-71
2022/07/25 03:56:19;;;;;;;11.45;10.30;;;;;;;;;;4996346;28;92740;-71
2022/07/25 03:58:45;;;;;;;12.73;9.68;;;;;;;;;;4996094;28;92468;-70
2022/07/25 04:01:11;;;;;;;15.82;9.60;;;;;;;;;;4996791;28;93243;-71
2022/07/25 04:03:39;;;;;;;12.23;10.25;;;;;;;;;;4994996;28;96360;-71
2022/07/25 04:06:06;;;;;;;12.43;10.63;;;;;;;;;;4998681;28;92487;-70
2022/07/25 04:08:32;;;;;;;11.88;10.73;;;;;;;;;;4994848;28;94137;-70
2022/07/25 04:10:58;;;;;;;12.85;11.20;;;;;;;;;;4995651;28;92582;-71
2022/07/25 04:13:25;;;;;;;11.32;10.23;;;;;;;;;;4995721;28;92880;-70
2022/07/25 04:15:51;;;;;;;14.02;10.15;;;;;;;;;;4994276;28;93995;-70
2022/07/25 04:18:18;;;;;;;12.52;11.32;;;;;;;;;;4995717;28;93355;-70
2022/07/25 04:20:49;;;;;;;15.18;9.70;;;;;;;;;;4995840;28;92894;-70
2022/07/25 04:23:16;;;;;;;11.63;10.27;;;;;;;;;;4996034;28;93240;-71
2022/07/25 04:25:42;;;;;;;13.50;10.07;;;;;;;;;;4995058;28;92486;-70
2022/07/25 04:28:09;;;;;;;13.18;11.38;;;;;;;;;;4996356;28;94810;-71
2022/07/25 04:30:36;;;;;;;14.45;10.82;;;;;;;;;;4995320;28;92486;-70
2022/07/25 04:33:04;;;;;;;12.00;10.75;;;;;;;;;;4994362;28;92521;-70
2022/07/25 04:35:30;;;;;;;13.40;10.02;;;;;;;;;;4995105;28;93377;-70
2022/07/25 04:37:56;;;;;;;12.95;9.70;;;;;;;;;;4995811;28;92586;-70
2022/07/25 04:40:23;;;;;;;14.23;9.63;;;;;;;;;;4995795;28;92861;-70
2022/07/25 04:42:49;;;;;;;9.98;8.98;;;;;;;;;;4990490;28;93218;-71
2022/07/25 04:45:15;;;;;;;10.40;8.80;;;;;;;;;;4990867;28;91776;-70
2022/07/25 04:47:43;;;;;;;12.63;9.20;;;;;;;;;;4988866;28;92632;-70
2022/07/25 04:50:09;;;;;;;10.07;9.07;;;;;;;;;;4988174;28;93377;-70
2022/07/25 04:52:36;;;;;;;10.20;8.60;;;;;;;;;;4987797;28;97489;-70
2022/07/25 04:55:03;;;;;;;10.93;8.75;;;;;;;;;;4995878;28;94161;-70
2022/07/25 04:57:29;;;;;;;10.30;9.32;;;;;;;;;;4984756;28;93035;-70
2022/07/25 04:59:55;;;;;;;10.02;8.70;;;;;;;;;;4987918;28;93125;-70
2022/07/25 05:02:22;;;;;;;10.82;8.70;;;;;;;;;;4991275;28;94566;-70
2022/07/25 05:04:48;;;;;;;9.63;8.63;;;;;;;;;;4989995;28;92595;-70
2022/07/25 05:07:17;;;;;;;8.98;8.07;;;;;;;;;;4989402;28;93069;-71
2022/07/25 05:09:44;;;;;;;9.05;7.70;;;;;;;;;;4989798;28;93628;-70
2022/07/25 05:12:11;;;;;;;8.93;7.95;;;;;;;;;;4991402;28;94307;-71
2022/07/25 05:14:37;;;;;;;8.43;7.80;;;;;;;;;;4987661;28;94060;-70
2022/07/25 05:17:03;;;;;;;8.45;7.65;;;;;;;;;;4989429;28;96035;-71
2022/07/25 05:19:30;;;;;;;11.05;8.13;;;;;;;;;;4988241;28;95885;-71
2022/07/25 05:21:56;;;;;;;10.10;8.02;;;;;;;;;;4991500;28;94269;-69
2022/07/25 05:24:23;;;;;;;8.50;7.57;;;;;;;;;;4994468;28;92673;-70
2022/07/25 05:26:49;;;;;;;8.75;7.95;;;;;;;;;;4990309;28;92557;-70
2022/07/25 05:29:15;;;;;;;13.73;7.82;;;;;;;;;;4990554;28;93218;-70
2022/07/25 05:31:42;;;;;;;8.30;7.50;;;;;;;;;;4992295;28;93010;-70
2022/07/25 05:34:08;;;;;;;7.70;6.97;;;;;;;;;;5003479;28;94033;-70
2022/07/25 05:36:35;;;;;;;5.10;4.70;;;;;;;;;;4995004;28;93184;-71
2022/07/25 05:39:02;;;;;;;6.75;6.18;;;;;;;;;;4988547;28;93900;-73
2022/07/25 05:41:28;;;;;;;10.32;7.32;;;;;;;;;;4984823;28;96558;-73
2022/07/25 05:43:55;;;;;;;8.27;6.72;;;;;;;;;;4985696;28;93800;-73
2022/07/25 05:46:22;;;;;;;7.60;6.53;;;;;;;;;;4986339;28;93937;-72
2022/07/25 05:48:50;;;;;;;11.35;6.53;;;;;;;;;;4987030;28;93162;-74
2022/07/25 05:51:17;;;;;;;10.98;7.78;;;;;;;;;;4988508;28;93095;-73
2022/07/25 05:53:46;;;;;;;8.75;7.47;;;;;;;;;;4990559;28;93895;-73
2022/07/25 05:56:12;;;;;;;8.27;7.55;;;;;;;;;;4995215;28;92529;-73
2022/07/25 05:58:39;;;;;;;7.78;6.65;;;;;;;;;;4993845;28;92982;-73
2022/07/25 06:01:06;;;;;;;10.43;7.13;;;;;;;;;;4992177;28;94575;-73
2022/07/25 06:03:33;;;;;;;7.03;6.32;;;;;;;;;;4992654;28;93473;-73
2022/07/25 06:05:59;;;;;;;11.55;7.57;;;;;;;;;;4992991;28;94946;-73
2022/07/25 06:08:29;;;;;;;8.63;6.40;;;;;;;;;;4993931;28;93236;-72
2022/07/25 06:10:57;;;;;;;9.30;7.05;;;;;;;;;;4994411;28;92488;-73
2022/07/25 06:13:24;;;;;;;8.02;6.88;;;;;;;;;;4989587;28;94388;-73
2022/07/25 06:15:53;;;;;;;10.60;6.72;;;;;;;;;;4989300;28;93761;-73
2022/07/25 06:18:20;;;;;;;10.82;7.43;;;;;;;;;;4994894;28;93950;-73
2022/07/25 06:20:47;;;;;;;8.27;7.45;;;;;;;;;;4993518;28;93327;-73
2022/07/25 06:23:14;;;;;;;7.80;7.05;;;;;;;;;;4995180;28;91740;-73
2022/07/25 06:25:40;;;;;;;8.10;7.32;;;;;;;;;;4994248;28;92542;-73
2022/07/25 06:28:07;;;;;;;10.70;7.18;;;;;;;;;;4992930;28;93826;-74
2022/07/25 06:30:35;;;;;;;7.97;6.97;;;;;;;;;;4990612;28;95658;-73
2022/07/25 06:33:02;;;;;;;7.13;6.22;;;;;;;;;;4994455;28;95465;-73
2022/07/25 06:35:28;;;;;;;10.93;6.95;;;;;;;;;;4991464;28;94283;-73
2022/07/25 06:37:54;;;;;;;7.93;6.30;;;;;;;;;;4996698;28;92652;-73
2022/07/25 06:40:21;;;;;;;6.78;6.18;;;;;;;;;;4994138;28;93246;-73
2022/07/25 06:42:47;;;;;;;5.75;5.20;;;;;;;;;;4991682;28;93001;-73
2022/07/25 06:45:16;;;;;;;7.15;4.90;;;;;;;;;;4979891;28;96750;-73
2022/07/25 06:47:42;;;;;;;6.22;4.68;;;;;;;;;;4983207;28;93628;-73
2022/07/25 06:50:13;;;;;;;7.30;4.32;;;;;;;;;;4981175;28;94122;-73
2022/07/25 06:52:40;;;;;;;4.80;4.40;;;;;;;;;;4988397;28;93272;-73
2022/07/25 06:55:08;;;;;;;4.70;4.32;;;;;;;;;;4987091;28;95654;-72
2022/07/25 06:57:34;;;;;;;4.75;4.38;;;;;;;;;;4989748;28;92449;-73
2022/07/25 07:00:04;;;;;;;4.07;3.58;;;;;;;;;;4992831;28;94443;-73
2022/07/25 07:02:31;;;;;;;5.85;3.30;;;;;;;;;;4987603;28;94104;-72
2022/07/25 07:04:57;;;;;;;4.25;2.80;;;;;;;;;;4991226;28;94358;-73
2022/07/25 07:07:24;;;;;;;6.45;3.20;;;;;;;;;;4987967;28;93260;-73
2022/07/25 07:09:50;;;;;;;3.58;3.10;;;;;;;;;;4989933;28;93903;-73
2022/07/25 07:12:16;;;;;;;4.35;3.05;;;;;;;;;;4990442;28;91854;-73
2022/07/25 07:14:44;;;;;;;2.90;2.58;;;;;;;;;;4988826;28;92524;-73
2022/07/25 07:17:10;;;;;;;2.50;2.30;;;;;;;;;;4978998;28;92716;-73
2022/07/25 07:19:42;;;;;;;4.75;2.10;;;;;;;;;;4985432;28;95057;-72
2022/07/25 07:22:09;;;;;;;3.00;2.17;;;;;;;;;;4994840;28;93293;-73
2022/07/25 07:24:35;;;;;;;7.40;2.10;;;;;;;;;;4980175;28;93878;-73
2022/07/25 07:27:10;;;;;;;4.95;2.05;;;;;;;;;;4982277;28;93380;-73
2022/07/25 07:29:36;;;;;;;2.25;2.05;;;;;;;;;;4978470;28;93462;-73
2022/07/25 07:32:03;;;;;;;2.42;1.90;;;;;;;;;;4991773;28;93078;-75
2022/07/25 07:34:30;;;;;;;4.90;1.90;;;;;;;;;;4979363;28;94748;-72
2022/07/25 07:36:56;;;;;;;4.63;2.00;;;;;;;;;;4988492;28;93538;-72
2022/07/25 07:39:22;;;;;;;2.45;1.67;;;;;;;;;;4980014;28;92541;-72
2022/07/25 07:41:49;;;;;;;1.85;1.70;;;;;;;;;;4980199;28;93876;-73
2022/07/25 07:44:15;;;;;;;2.38;1.70;;;;;;;;;;5006974;28;95399;-71
2022/07/25 07:46:41;;;;;;;3.15;1.77;;;;;;;;;;5010786;28;94387;-71
2022/07/25 07:49:08;;;;;;;1.88;1.77;;;;;;;;;;5002939;28;92492;-71
2022/07/25 07:51:36;;;;;;;1.73;1.48;;;;;;;;;;4983911;28;93009;-71
2022/07/25 07:56:48;;;;;;;2.92;1.70;;;;;;;;;;4977856;28;93037;-73
2022/07/25 07:59:14;;;;;;;2.58;1.40;;;;;;;;;;4979797;28;94272;-72
2022/07/25 08:01:41;;;;;;;2.28;1.45;;;;;;;;;;4993777;28;92834;-73
2022/07/25 08:04:07;;;;;;;3.40;1.27;;;;;;;;;;5000034;28;92740;-71
2022/07/25 08:06:35;;;;;;;5.38;1.77;;;;;;;;;;5011830;28;93510;-73
2022/07/25 08:09:01;;;;;;;5.57;1.60;;;;;;;;;;4987670;28;94999;-74
2022/07/25 08:11:28;;;;;;;1.77;1.60;;;;;;;;;;4935605;28;95449;-75
2022/07/25 08:13:55;;;;;;;1.58;1.40;;;;;;;;;;4973172;28;94399;-72
2022/07/25 08:16:21;;;;;;;3.30;1.23;;;;;;;;;;4984816;28;92568;-73
2022/07/25 08:18:48;;;;;;;2.00;1.17;;;;;;;;;;4964805;28;93753;-73
2022/07/25 08:21:14;;;;;;;2.20;1.10;;;;;;;;;;4912006;28;95038;-74
2022/07/25 08:23:41;;;;;;;3.55;1.10;;;;;;;;;;4994180;28;92872;-73
2022/07/25 08:26:07;;;;;;;2.38;1.27;;;;;;;;;;4992936;28;93572;-81
2022/07/25 08:28:34;;;;;;;2.42;1.20;;;;;;;;;;4982901;28;94596;-74
2022/07/25 08:31:01;;;;;;;1.90;1.30;;;;;;;;;;5002021;27;93336;-73
2022/07/25 08:33:28;;;;;;;1.92;1.40;;;;;;;;;;4998790;28;95593;-72
2022/07/25 08:35:55;;;;;;;1.58;1.33;;;;;;;;;;5008433;28;92651;-72
2022/07/25 08:38:23;;;;;;;3.92;1.20;;;;;;;;;;5016118;28;92912;-72
2022/07/25 08:40:51;;;;;;;1.20;1.10;;;;;;;;;;5012080;28;93979;-70
2022/07/25 08:43:19;;;;;;;5.30;1.20;;;;;;;;;;5004730;28;92547;-72
2022/07/25 08:45:47;;;;;;;2.80;1.20;;;;;;;;;;5007414;28;93427;-70
2022/07/25 08:48:15;;;;;;;5.75;1.52;;;;;;;;;;4989089;28;93292;-71
2022/07/25 08:50:42;;;;;;;4.40;1.48;;;;;;;;;;4990184;28;91732;-71
2022/07/25 08:53:09;;;;;;;2.80;1.50;;;;;;;;;;4994610;28;94115;-71
2022/07/25 08:55:55;;;;;;;3.58;1.33;;;;;;;;;;4987730;27;94163;-69
2022/07/25 08:58:24;;;;;;;4.78;1.50;;;;;;;;;;4987640;28;94764;-71
2022/07/25 09:00:50;;;;;;;3.40;1.30;;;;;;;;;;4991840;28;93986;-72
2022/07/25 09:03:17;;;;;;;3.75;1.40;;;;;;;;;;5003657;28;92574;-70
2022/07/25 09:05:44;;;;;;;7.45;1.25;;;;;;;;;;5000402;28;92399;-70
2022/07/25 09:08:12;;;;;;;3.35;1.40;;;;;;;;;;4999127;28;93574;-70
2022/07/25 09:10:41;;;;;;;2.22;1.35;;;;;;;;;;4991859;28;95521;-70
2022/07/25 09:13:12;;;;;;;4.75;1.52;;;;;;;;;;4988492;28;93475;-69
2022/07/25 09:15:43;;;;;;;1.73;1.30;;;;;;;;;;4991342;28;91643;-69
2022/07/25 09:18:13;;;;;;;5.55;1.95;;;;;;;;;;4993724;28;93178;-70
2022/07/25 09:20:53;;;;;;;1.95;1.23;;;;;;;;;;5006429;28;93299;-70
2022/07/25 09:23:30;;;;;;;2.40;1.25;;;;;;;;;;5009047;28;95126;-71
2022/07/25 09:26:06;;;;;;;4.47;1.27;;;;;;;;;;5011631;28;95524;-71
2022/07/25 09:28:40;;;;;;;4.30;1.45;;;;;;;;;;5013392;28;93088;-70
2022/07/25 09:31:08;;;;;;;5.90;1.40;;;;;;;;;;5014672;28;92837;-70
2022/07/25 09:33:46;;;;;;;3.85;1.65;;;;;;;;;;5002550;28;94010;-70
2022/07/25 09:36:15;;;;;;;6.22;1.48;;;;;;;;;;4987174;28;92299;-70
2022/07/25 09:38:54;;;;;;;2.65;1.80;;;;;;;;;;4993430;28;93151;-70
2022/07/25 09:41:20;;;;;;;7.03;1.77;;;;;;;;;;4984256;28;93371;-71
2022/07/25 09:43:47;;;;;;;2.60;1.35;;;;;;;;;;4993192;28;92577;-71
2022/07/25 09:46:13;;;;;;;2.65;1.85;;;;;;;;;;5009109;28;93984;-71
2022/07/25 09:48:43;;;;;;;7.68;2.00;;;;;;;;;;5006361;28;95583;-70
2022/07/25 09:51:09;;;;;;;8.23;2.30;;;;;;;;;;5016154;28;92479;-70
2022/07/25 09:53:36;;;;;;;5.10;1.65;;;;;;;;;;5010082;28;93126;-71
2022/07/25 09:56:02;;;;;;;4.07;1.83;;;;;;;;;;4980785;28;94021;-70
2022/07/25 09:58:29;;;;;;;3.70;1.80;;;;;;;;;;4991237;28;93758;-72
2022/07/25 10:00:59;;;;;;;4.75;1.73;;;;;;;;;;4987269;28;93214;-71
2022/07/25 10:03:28;;;;;;;13.38;1.92;;;;;;;;;;4982799;28;92477;-71
2022/07/25 10:06:10;;;;;;;4.03;1.83;;;;;;;;;;4984202;28;96398;-72
2022/07/25 10:08:37;;;;;;;4.78;1.80;;;;;;;;;;4981248;28;93310;-73
2022/07/25 10:11:05;;;;;;;4.80;1.80;;;;;;;;;;4981722;28;94249;-73
2022/07/25 10:13:33;;;;;;;4.57;1.73;;;;;;;;;;4977304;28;95125;-76
2022/07/25 10:16:00;;;;;;;5.78;1.70;;;;;;;;;;4986455;28;93601;-75
2022/07/25 10:18:28;;;;;;;2.40;1.50;;;;;;;;;;4983196;28;94186;-76
2022/07/25 10:21:09;;;;;;;4.32;1.83;;;;;;;;;;4986175;28;93776;-75
2022/07/25 10:24:04;;;;;;;4.07;1.63;;;;;;;;;;4989317;27;94318;-76
2022/07/25 10:26:33;;;;;;;6.55;1.80;;;;;;;;;;4996474;28;92987;-76
2022/07/25 10:29:00;;;;;;;3.83;1.65;;;;;;;;;;5004761;28;93325;-76
2022/07/25 10:31:35;;;;;;;7.60;2.35;;;;;;;;;;4981239;28;92478;-76
2022/07/25 10:34:03;;;;;;;4.88;2.00;;;;;;;;;;4986090;28;93138;-74
2022/07/25 10:36:41;;;;;;;4.00;1.70;;;;;;;;;;5003270;28;94068;-73
2022/07/25 10:39:09;;;;;;;5.50;1.65;;;;;;;;;;4996912;28;94955;-71
2022/07/25 10:41:39;;;;;;;3.00;1.85;;;;;;;;;;4986190;28;93444;-71
2022/07/25 10:44:10;;;;;;;5.25;2.20;;;;;;;;;;4988477;28;93472;-71
2022/07/25 10:46:36;;;;;;;5.33;2.00;;;;;;;;;;4981024;28;93142;-78
2022/07/25 10:49:04;;;;;;;5.10;2.00;;;;;;;;;;4996096;28;94358;-72
2022/07/25 10:51:33;;;;;;;6.03;2.38;;;;;;;;;;4995265;28;92460;-70
2022/07/25 10:54:13;;;;;;;4.30;1.90;;;;;;;;;;4994930;28;93275;-71
2022/07/25 10:56:50;;;;;;;5.03;2.22;;;;;;;;;;4994772;28;93694;-71
2022/07/25 10:59:24;;;;;;;9.18;2.25;;;;;;;;;;4995100;28;92447;-70
2022/07/25 11:01:50;;;;;;;7.80;2.00;;;;;;;;;;4996924;28;94148;-71
2022/07/25 11:04:16;;;;;;;7.85;1.92;;;;;;;;;;4993823;28;94921;-70
2022/07/25 11:06:43;;;;;;;9.20;2.20;;;;;;;;;;4995078;28;95505;-71
2022/07/25 11:09:22;;;;;;;10.55;2.08;;;;;;;;;;4994056;28;93272;-70
2022/07/25 11:11:57;;;;;;;12.77;2.50;;;;;;;;;;4994861;28;92586;-71
2022/07/25 11:14:24;;;;;;;4.95;1.90;;;;;;;;;;4994926;28;93968;-71
2022/07/25 11:16:52;;;;;;;7.18;1.92;;;;;;;;;;4993266;28;93558;-70
2022/07/25 11:19:22;;;;;;;6.53;2.42;;;;;;;;;;4995001;28;92514;-71
2022/07/25 11:21:50;;;;;;;8.80;2.47;;;;;;;;;;4995105;28;93094;-71
2022/07/25 11:24:17;;;;;;;4.50;1.83;;;;;;;;;;4996747;28;92401;-70
2022/07/25 11:26:44;;;;;;;5.75;2.13;;;;;;;;;;4994415;28;93263;-70
2022/07/25 11:29:27;;;;;;;6.63;2.65;;;;;;;;;;4992371;28;95845;-71
2022/07/25 11:32:00;;;;;;;7.85;2.47;;;;;;;;;;4994235;28;92697;-71
2022/07/25 11:34:33;;;;;;;12.65;3.03;;;;;;;;;;4994774;28;92936;-70
2022/07/25 11:37:01;;;;;;;7.30;2.80;;;;;;;;;;4994370;28;94027;-71
2022/07/25 11:39:33;;;;;;;7.40;2.75;;;;;;;;;;4987113;28;92526;-71
2022/07/25 11:42:02;;;;;;;9.50;2.63;;;;;;;;;;4997201;28;92871;-70
2022/07/25 11:44:37;;;;;;;6.97;2.78;;;;;;;;;;4996897;28;93572;-71
2022/07/25 11:47:24;;;;;;;8.25;2.30;;;;;;;;;;5033130;28;92053;-70
2022/07/25 11:49:52;;;;;;;7.60;2.47;;;;;;;;;;4996987;28;94347;-70
2022/07/25 11:52:23;;;;;;;7.75;2.90;;;;;;;;;;4996646;28;92429;-70
2022/07/25 11:54:53;;;;;;;6.38;2.92;;;;;;;;;;4996777;28;95421;-70
2022/07/25 11:57:24;;;;;;;16.10;3.53;;;;;;;;;;4998606;28;93202;-70
2022/07/25 11:59:54;;;;;;;6.65;2.88;;;;;;;;;;4997243;28;92749;-71
2022/07/25 12:02:26;;;;;;;8.70;2.72;;;;;;;;;;4997600;28;93823;-70
2022/07/25 12:05:02;;;;;;;10.27;3.10;;;;;;;;;;4997358;28;93689;-69
2022/07/25 12:07:35;;;;;;;12.52;3.35;;;;;;;;;;4998040;28;93181;-70
2022/07/25 12:10:05;;;;;;;15.15;3.75;;;;;;;;;;5000347;28;93094;-70
2022/07/25 12:12:43;;;;;;;11.38;3.15;;;;;;;;;;4996978;28;91783;-70
2022/07/25 12:15:12;;;;;;;9.30;2.72;;;;;;;;;;4997243;28;92459;-70
2022/07/25 12:17:39;;;;;;;10.23;3.10;;;;;;;;;;4990131;28;93379;-69
2022/07/25 12:20:27;;;;;;;10.68;3.10;;;;;;;;;;4996198;28;95156;-71
2022/07/25 12:22:55;;;;;;;12.45;2.80;;;;;;;;;;4992286;28;95530;-70
2022/07/25 12:25:23;;;;;;;11.23;2.67;;;;;;;;;;4997838;28;93244;-70
2022/07/25 12:27:57;;;;;;;13.80;2.80;;;;;;;;;;4995590;28;92855;-71
2022/07/25 12:30:28;;;;;;;9.60;2.88;;;;;;;;;;5000385;28;92954;-70
2022/07/25 12:33:00;;;;;;;8.27;2.60;;;;;;;;;;4997568;28;92455;-70
2022/07/25 12:35:31;;;;;;;13.43;3.00;;;;;;;;;;4996469;28;93554;-71
2022/07/25 12:37:57;;;;;;;12.02;2.67;;;;;;;;;;4997797;28;92490;-70
2022/07/25 12:40:24;;;;;;;11.30;3.65;;;;;;;;;;4996293;28;92616;-70
2022/07/25 12:42:50;;;;;;;8.65;3.22;;;;;;;;;;4997127;28;93894;-70
2022/07/25 12:45:17;;;;;;;9.02;2.80;;;;;;;;;;4995172;28;95687;-70
2022/07/25 12:47:44;;;;;;;11.23;2.70;;;;;;;;;;4996005;28;92546;-70
2022/07/25 12:50:11;;;;;;;4.90;2.70;;;;;;;;;;4997229;28;93277;-70
2022/07/25 12:52:37;;;;;;;4.15;2.17;;;;;;;;;;4998602;28;93484;-70
2022/07/25 12:55:07;;;;;;;7.90;2.85;;;;;;;;;;4996409;28;92404;-70
2022/07/25 12:57:34;;;;;;;8.77;2.63;;;;;;;;;;4996476;28;93424;-71
2022/07/25 13:00:03;;;;;;;7.82;2.15;;;;;;;;;;4997128;28;92550;-70
2022/07/25 13:02:29;;;;;;;7.18;2.42;;;;;;;;;;4996618;28;93382;-70
2022/07/25 13:04:55;;;;;;;5.93;2.40;;;;;;;;;;4995750;28;93437;-70
2022/07/25 13:07:22;;;;;;;6.30;2.58;;;;;;;;;;4996535;28;92479;-70
2022/07/25 13:09:48;;;;;;;11.73;2.60;;;;;;;;;;4994160;28;95192;-70
2022/07/25 13:12:14;;;;;;;7.05;2.35;;;;;;;;;;4996595;28;93127;-70
2022/07/25 13:14:41;;;;;;;14.93;3.42;;;;;;;;;;4999588;28;92458;-71
2022/07/25 13:17:08;;;;;;;15.07;2.25;;;;;;;;;;4995830;28;94376;-70
2022/07/25 13:19:34;;;;;;;12.77;2.63;;;;;;;;;;4996747;28;92629;-71
2022/07/25 13:22:01;;;;;;;11.63;2.35;;;;;;;;;;4996539;28;92960;-71
2022/07/25 13:24:27;;;;;;;7.32;2.65;;;;;;;;;;4995240;28;93324;-70
2022/07/25 13:26:53;;;;;;;8.02;2.30;;;;;;;;;;4997071;28;91778;-70
2022/07/25 13:29:20;;;;;;;9.65;1.98;;;;;;;;;;4996774;28;94166;-70
2022/07/25 13:31:49;;;;;;;6.35;2.47;;;;;;;;;;4995722;28;94580;-70
2022/07/25 13:34:15;;;;;;;6.97;2.00;;;;;;;;;;4995570;28;94869;-71
2022/07/25 13:36:42;;;;;;;9.75;3.08;;;;;;;;;;4998407;28;95475;-70
2022/07/25 13:39:08;;;;;;;7.82;2.38;;;;;;;;;;4996101;28;92575;-70
2022/07/25 13:41:35;;;;;;;17.27;2.38;;;;;;;;;;4996791;28;93425;-70
2022/07/25 13:44:01;;;;;;;12.63;2.50;;;;;;;;;;4987417;28;93419;-70
2022/07/25 13:46:28;;;;;;;5.38;2.40;;;;;;;;;;4996012;28;92479;-71
2022/07/25 13:48:54;;;;;;;15.10;3.20;;;;;;;;;;4995575;28;93184;-70
2022/07/25 13:51:20;;;;;;;7.82;2.65;;;;;;;;;;4995708;28;91690;-70
2022/07/25 13:53:47;;;;;;;6.72;3.00;;;;;;;;;;4995352;28;92429;-71
2022/07/25 13:56:13;;;;;;;8.27;2.35;;;;;;;;;;4996775;28;93278;-71
2022/07/25 13:58:40;;;;;;;10.02;2.60;;;;;;;;;;4997776;27;95826;-71
2022/07/25 14:01:07;;;;;;;5.10;2.15;;;;;;;;;;4996728;27;95493;-70
2022/07/25 14:03:35;;;;;;;6.35;1.95;;;;;;;;;;4995649;28;92442;-70
2022/07/25 14:06:02;;;;;;;15.55;2.75;;;;;;;;;;4995572;28;92728;-70
2022/07/25 14:08:29;;;;;;;11.57;2.08;;;;;;;;;;4996312;28;93263;-70
2022/07/25 14:10:55;;;;;;;7.15;2.00;;;;;;;;;;4995692;28;93116;-71
2022/07/25 14:13:22;;;;;;;11.93;2.20;;;;;;;;;;4995511;28;92485;-70
2022/07/25 14:15:48;;;;;;;6.72;2.15;;;;;;;;;;4996578;28;93952;-70
2022/07/25 14:18:14;;;;;;;12.50;2.05;;;;;;;;;;4996066;28;93199;-71
2022/07/25 14:20:41;;;;;;;12.85;2.83;;;;;;;;;;4997161;28;92372;-70
2022/07/25 14:23:07;;;;;;;4.75;2.10;;;;;;;;;;4994012;28;94712;-70
2022/07/25 14:25:33;;;;;;;12.07;2.13;;;;;;;;;;4996522;28;92521;-71
2022/07/25 14:28:00;;;;;;;14.05;2.22;;;;;;;;;;4995422;28;92768;-70
2022/07/25 14:30:26;;;;;;;21.55;2.83;;;;;;;;;;4995814;28;93436;-71
2022/07/25 14:32:53;;;;;;;12.32;2.10;;;;;;;;;;4994190;28;92635;-70
2022/07/25 14:35:19;;;;;;;11.43;2.60;;;;;;;;;;4995460;28;94029;-70
2022/07/25 14:37:46;;;;;;;12.68;1.88;;;;;;;;;;4995309;28;93289;-70
2022/07/25 14:40:13;;;;;;;6.28;1.52;;;;;;;;;;4998115;28;91756;-70
2022/07/25 14:42:40;;;;;;;9.63;1.95;;;;;;;;;;4995411;28;93343;-70
2022/07/25 14:45:07;;;;;;;14.38;2.35;;;;;;;;;;4995477;28;92365;-70